Time;durP1;ratioP1;P1;durP2;ratioP2;P2;SDS_P1;SDS_P2;PMS_P1;PMS_P2;Temp;Humidity;BMP_temperature;BMP_pressure;BME280_temperature;BME280_humidity;BME280_pressure;Samples;Min_cycle;Max_cycle;Signal;HPM_P1;HPM_P2
2022/08/10 00:01:58;;;;;;;6.00;4.00;;;;;;;;;;10363053;28;20308;-78
2022/08/10 00:06:59;;;;;;;4.30;3.85;;;;;;;;;;10360883;28;20056;-77
2022/08/10 00:11:59;;;;;;;4.60;4.07;;;;;;;;;;10358335;28;20137;-77
2022/08/10 00:16:59;;;;;;;6.00;4.27;;;;;;;;;;10367181;28;20136;-78
2022/08/10 00:22:01;;;;;;;6.07;3.72;;;;;;;;;;10363945;28;20045;-77
2022/08/10 00:27:01;;;;;;;4.63;4.10;;;;;;;;;;10342566;28;20101;-77
2022/08/10 00:32:02;;;;;;;4.35;3.90;;;;;;;;;;10354413;28;20289;-78
2022/08/10 00:37:02;;;;;;;4.70;4.22;;;;;;;;;;10357599;28;20058;-78
2022/08/10 00:42:04;;;;;;;5.93;4.20;;;;;;;;;;10365043;28;20048;-77
2022/08/10 00:47:06;;;;;;;5.15;4.30;;;;;;;;;;10338765;28;20053;-77
2022/08/10 00:52:06;;;;;;;4.55;3.88;;;;;;;;;;10330716;28;20389;-78
2022/08/10 00:57:07;;;;;;;4.78;4.28;;;;;;;;;;10358355;28;20048;-77
2022/08/10 01:02:08;;;;;;;4.30;3.75;;;;;;;;;;10360240;28;20049;-78
2022/08/10 01:07:16;;;;;;;4.13;3.72;;;;;;;;;;10354742;28;20188;-78
2022/08/10 01:12:19;;;;;;;6.95;3.83;;;;;;;;;;10343475;28;20184;-78
2022/08/10 01:17:23;;;;;;;5.22;4.13;;;;;;;;;;10357108;28;20050;-78
2022/08/10 01:22:36;;;;;;;4.68;4.13;;;;;;;;;;10352516;28;20108;-77
2022/08/10 01:27:42;;;;;;;4.70;4.30;;;;;;;;;;10358743;28;20054;-77
2022/08/10 01:32:52;;;;;;;4.55;4.03;;;;;;;;;;10325671;28;20052;-77
2022/08/10 01:38:01;;;;;;;4.75;4.28;;;;;;;;;;10353017;28;20093;-77
2022/08/10 01:43:03;;;;;;;5.72;4.32;;;;;;;;;;10353478;28;20048;-77
2022/08/10 01:53:25;;;;;;;4.30;3.90;;;;;;;;;;10357956;28;20137;-78
2022/08/10 01:58:26;;;;;;;4.13;3.72;;;;;;;;;;10361167;28;20045;-77
2022/08/10 02:03:27;;;;;;;4.10;3.78;;;;;;;;;;10352043;28;20104;-78
2022/08/10 02:08:29;;;;;;;5.00;4.53;;;;;;;;;;10324557;28;20046;-78
2022/08/10 02:13:30;;;;;;;4.43;4.03;;;;;;;;;;10337985;28;20034;-78
2022/08/10 02:18:31;;;;;;;5.10;4.18;;;;;;;;;;10356512;28;20041;-77
2022/08/10 02:23:34;;;;;;;5.53;4.22;;;;;;;;;;10349843;28;20567;-77
2022/08/10 02:28:35;;;;;;;4.90;4.47;;;;;;;;;;10350651;28;20714;-77
2022/08/10 02:33:36;;;;;;;4.30;4.00;;;;;;;;;;10355181;28;20117;-78
2022/08/10 02:38:43;;;;;;;4.40;4.00;;;;;;;;;;10356623;28;20050;-77
2022/08/10 02:43:49;;;;;;;4.78;4.38;;;;;;;;;;10352344;28;20045;-76
2022/08/10 02:49:03;;;;;;;5.18;4.60;;;;;;;;;;10338260;28;20696;-78
2022/08/10 02:54:06;;;;;;;5.18;4.68;;;;;;;;;;10341054;28;20073;-78
2022/08/10 02:59:19;;;;;;;5.68;4.93;;;;;;;;;;10347680;28;20034;-78
2022/08/10 03:04:21;;;;;;;5.45;4.43;;;;;;;;;;10355445;28;20034;-78
2022/08/10 03:09:22;;;;;;;4.30;3.90;;;;;;;;;;10319322;28;20049;-77
2022/08/10 03:14:24;;;;;;;5.43;4.28;;;;;;;;;;10315785;28;20351;-78
2022/08/10 03:19:25;;;;;;;5.32;4.43;;;;;;;;;;10348983;28;20065;-78
2022/08/10 03:24:26;;;;;;;5.60;4.53;;;;;;;;;;10353920;28;20042;-77
2022/08/10 03:29:27;;;;;;;4.47;4.07;;;;;;;;;;10321853;28;20051;-78
2022/08/10 03:34:27;;;;;;;5.20;4.13;;;;;;;;;;10373136;28;20033;-78
2022/08/10 03:39:29;;;;;;;4.23;3.93;;;;;;;;;;10393524;28;20057;-79
2022/08/10 03:44:31;;;;;;;4.22;3.90;;;;;;;;;;10369478;28;20041;-77
2022/08/10 03:49:35;;;;;;;4.70;4.30;;;;;;;;;;10349741;28;20092;-77
2022/08/10 03:54:36;;;;;;;5.50;4.55;;;;;;;;;;10355365;28;20038;-78
2022/08/10 03:59:36;;;;;;;4.95;3.90;;;;;;;;;;10354025;28;20044;-78
2022/08/10 04:04:37;;;;;;;4.20;3.60;;;;;;;;;;10349342;28;20056;-77
2022/08/10 04:09:39;;;;;;;4.27;3.97;;;;;;;;;;10357558;28;20046;-77
2022/08/10 04:14:40;;;;;;;5.47;3.80;;;;;;;;;;10355776;28;20286;-78
2022/08/10 04:19:45;;;;;;;4.13;3.83;;;;;;;;;;10369790;28;20401;-76
2022/08/10 04:24:46;;;;;;;3.80;3.50;;;;;;;;;;10352091;28;20122;-77
2022/08/10 04:29:49;;;;;;;4.35;3.40;;;;;;;;;;10366651;28;20227;-77
2022/08/10 04:34:51;;;;;;;3.50;3.20;;;;;;;;;;10362136;28;20038;-77
2022/08/10 04:39:53;;;;;;;4.65;4.25;;;;;;;;;;10369209;28;20127;-77
2022/08/10 04:44:53;;;;;;;4.63;3.80;;;;;;;;;;10348524;28;20155;-77
2022/08/10 04:49:54;;;;;;;3.80;3.38;;;;;;;;;;10351484;28;20144;-77
2022/08/10 04:54:54;;;;;;;4.67;4.10;;;;;;;;;;10362958;28;20038;-77
2022/08/10 04:59:56;;;;;;;4.68;3.65;;;;;;;;;;10359869;28;20282;-77
2022/08/10 05:04:56;;;;;;;4.50;3.57;;;;;;;;;;10348089;28;20046;-77
2022/08/10 05:09:56;;;;;;;6.07;3.67;;;;;;;;;;10361962;28;20052;-78
2022/08/10 05:14:57;;;;;;;4.45;3.85;;;;;;;;;;10349138;28;20269;-77
2022/08/10 05:19:58;;;;;;;7.22;3.97;;;;;;;;;;10357989;28;20050;-79
2022/08/10 05:24:59;;;;;;;4.70;3.90;;;;;;;;;;10336201;28;20097;-78
2022/08/10 05:29:59;;;;;;;4.72;4.13;;;;;;;;;;10363026;28;20147;-78
2022/08/10 05:35:00;;;;;;;3.80;3.50;;;;;;;;;;10360587;28;20412;-78
2022/08/10 05:40:02;;;;;;;5.63;3.55;;;;;;;;;;10381970;28;20053;-78
2022/08/10 05:45:03;;;;;;;3.40;2.97;;;;;;;;;;10373484;28;20056;-78
2022/08/10 05:50:04;;;;;;;4.35;3.95;;;;;;;;;;10364447;28;20057;-77
2022/08/10 05:55:04;;;;;;;4.65;3.50;;;;;;;;;;10337487;28;20478;-78
2022/08/10 06:00:09;;;;;;;4.25;3.45;;;;;;;;;;10364575;28;20046;-77
2022/08/10 06:05:17;;;;;;;4.85;3.65;;;;;;;;;;10356804;28;20073;-77
2022/08/10 06:10:20;;;;;;;5.13;3.63;;;;;;;;;;10356194;28;20440;-78
2022/08/10 06:15:20;;;;;;;5.15;3.38;;;;;;;;;;10340189;28;20058;-77
2022/08/10 06:20:21;;;;;;;5.85;3.88;;;;;;;;;;10355827;28;20037;-77
2022/08/10 06:25:21;;;;;;;7.60;3.83;;;;;;;;;;10379133;28;20129;-78
2022/08/10 06:30:23;;;;;;;3.88;3.35;;;;;;;;;;10371830;28;20061;-78
2022/08/10 06:35:26;;;;;;;5.00;3.60;;;;;;;;;;10369257;28;20499;-78
2022/08/10 06:40:28;;;;;;;3.42;3.13;;;;;;;;;;10364507;28;20106;-78
2022/08/10 06:45:32;;;;;;;3.38;2.92;;;;;;;;;;10361259;28;20202;-78
2022/08/10 06:50:39;;;;;;;4.32;3.40;;;;;;;;;;10356795;28;20410;-76
2022/08/10 06:55:42;;;;;;;3.60;2.63;;;;;;;;;;10354304;28;20050;-77
2022/08/10 07:00:43;;;;;;;4.45;3.13;;;;;;;;;;10356731;28;20065;-77
2022/08/10 07:05:48;;;;;;;3.60;2.70;;;;;;;;;;10348562;28;20046;-77
2022/08/10 07:10:50;;;;;;;5.88;3.08;;;;;;;;;;10339075;28;20225;-77
2022/08/10 07:15:51;;;;;;;3.17;2.50;;;;;;;;;;10345009;28;20477;-76
2022/08/10 07:20:52;;;;;;;4.97;2.78;;;;;;;;;;10335201;28;20312;-77
2022/08/10 07:25:53;;;;;;;2.90;2.38;;;;;;;;;;10357689;28;20122;-77
2022/08/10 07:30:55;;;;;;;4.15;2.60;;;;;;;;;;10363747;28;20473;-79
2022/08/10 07:35:55;;;;;;;;;;;;;;;;;;10349054;28;20101;-77
2022/08/10 07:40:59;;;;;;;4.22;2.50;;;;;;;;;;10348950;28;19941;-78
2022/08/10 07:46:00;;;;;;;6.90;3.50;;;;;;;;;;10379297;28;20140;-79
2022/08/10 07:51:01;;;;;;;7.47;3.00;;;;;;;;;;10342807;28;20105;-78
2022/08/10 07:56:03;;;;;;;2.70;2.10;;;;;;;;;;10355314;28;20133;-78
2022/08/10 08:01:04;;;;;;;2.60;2.40;;;;;;;;;;10377459;28;20046;-77
2022/08/10 08:06:05;;;;;;;3.35;2.40;;;;;;;;;;10371026;28;20042;-77
2022/08/10 08:11:06;;;;;;;2.97;2.10;;;;;;;;;;10348938;28;20041;-80
2022/08/10 08:16:07;;;;;;;3.92;2.50;;;;;;;;;;10346121;28;20128;-78
2022/08/10 08:21:09;;;;;;;3.47;2.30;;;;;;;;;;10347958;28;20120;-79
2022/08/10 08:26:10;;;;;;;3.63;2.35;;;;;;;;;;10326015;28;20493;-77
2022/08/10 08:31:12;;;;;;;3.33;2.58;;;;;;;;;;10342183;28;20050;-77
2022/08/10 08:36:14;;;;;;;2.95;2.30;;;;;;;;;;10341002;28;20046;-77
2022/08/10 08:41:14;;;;;;;;;;;;;;;;;;10364570;28;20120;-77
2022/08/10 08:46:27;;;;;;;4.53;2.25;;;;;;;;;;10365474;28;20831;-76
2022/08/10 08:51:43;;;;;;;3.50;2.63;;;;;;;;;;10367158;28;20054;-78
2022/08/10 08:57:05;;;;;;;3.58;2.50;;;;;;;;;;10374742;28;20038;-78
2022/08/10 09:02:14;;;;;;;3.85;2.25;;;;;;;;;;10349202;28;20061;-78
2022/08/10 09:07:33;;;;;;;3.38;2.78;;;;;;;;;;10354467;28;20359;-78
2022/08/10 09:12:48;;;;;;;3.63;2.60;;;;;;;;;;10356655;28;20041;-77
2022/08/10 09:17:52;;;;;;;3.05;2.30;;;;;;;;;;10348657;28;20057;-78
2022/08/10 09:22:59;;;;;;;2.78;2.30;;;;;;;;;;10354949;28;20238;-77
2022/08/10 09:28:02;;;;;;;4.50;2.63;;;;;;;;;;10343293;28;20390;-77
2022/08/10 09:33:14;;;;;;;2.80;2.58;;;;;;;;;;10362089;28;20066;-77
2022/08/10 09:38:23;;;;;;;2.63;2.43;;;;;;;;;;10374201;28;20098;-78
2022/08/10 09:43:42;;;;;;;2.63;2.38;;;;;;;;;;10378255;28;20375;-77
2022/08/10 09:48:49;;;;;;;2.75;2.45;;;;;;;;;;10331246;28;20066;-78
2022/08/10 09:54:08;;;;;;;3.08;2.70;;;;;;;;;;10351189;28;20076;-77
2022/08/10 09:59:21;;;;;;;4.13;2.63;;;;;;;;;;10328475;28;20041;-77
2022/08/10 10:04:30;;;;;;;2.70;2.50;;;;;;;;;;10347199;28;20046;-77
2022/08/10 10:09:39;;;;;;;2.85;2.55;;;;;;;;;;10354999;28;20057;-78
2022/08/10 10:20:39;;;;;;;3.20;2.60;;;;;;;;;;10363661;28;20054;-78
2022/08/10 10:25:48;;;;;;;3.10;2.60;;;;;;;;;;10353896;28;20065;-77
2022/08/10 10:30:53;;;;;;;3.97;2.88;;;;;;;;;;10346025;28;20050;-79
2022/08/10 10:35:54;;;;;;;3.13;2.83;;;;;;;;;;10352566;28;20080;-78
2022/08/10 10:41:13;;;;;;;3.70;3.00;;;;;;;;;;10354143;28;20045;-78
2022/08/10 10:46:32;;;;;;;3.25;2.95;;;;;;;;;;10354536;28;20572;-78
2022/08/10 10:51:56;;;;;;;4.85;3.30;;;;;;;;;;10361162;28;20060;-78
2022/08/10 10:57:21;;;;;;;5.55;2.80;;;;;;;;;;10388675;28;20535;-77
2022/08/10 11:02:37;;;;;;;4.05;2.80;;;;;;;;;;10383410;28;20034;-78
2022/08/10 11:07:43;;;;;;;2.53;2.20;;;;;;;;;;10370171;28;20478;-78
2022/08/10 11:12:47;;;;;;;2.50;2.30;;;;;;;;;;10372018;28;20044;-78
2022/08/10 11:17:49;;;;;;;4.05;2.20;;;;;;;;;;10384909;28;20287;-77
2022/08/10 11:23:00;;;;;;;2.83;2.22;;;;;;;;;;10379397;28;20049;-79
2022/08/10 11:28:19;;;;;;;2.70;2.50;;;;;;;;;;10353783;28;20144;-80
2022/08/10 11:33:22;;;;;;;3.13;2.20;;;;;;;;;;10349462;28;20100;-78
2022/08/10 11:38:31;;;;;;;3.47;2.35;;;;;;;;;;10379049;28;20438;-77
2022/08/10 11:43:36;;;;;;;2.85;2.13;;;;;;;;;;10358228;28;20046;-77
2022/08/10 11:48:39;;;;;;;2.35;2.10;;;;;;;;;;10353840;28;20057;-77
2022/08/10 11:53:47;;;;;;;2.28;2.08;;;;;;;;;;10332915;28;20062;-78
2022/08/10 12:04:07;;;;;;;2.83;1.98;;;;;;;;;;10341088;28;20057;-77
2022/08/10 12:09:10;;;;;;;2.97;2.40;;;;;;;;;;10351576;28;20133;-78
2022/08/10 12:14:15;;;;;;;3.80;2.00;;;;;;;;;;10352226;28;20877;-77
2022/08/10 12:19:17;;;;;;;2.75;2.00;;;;;;;;;;10347625;28;20048;-78
2022/08/10 12:24:22;;;;;;;2.73;1.90;;;;;;;;;;10347535;28;20480;-79
2022/08/10 12:29:30;;;;;;;2.00;1.75;;;;;;;;;;10335316;28;20049;-78
2022/08/10 12:34:34;;;;;;;3.08;1.80;;;;;;;;;;10366270;28;20038;-78
2022/08/10 12:39:54;;;;;;;2.03;1.80;;;;;;;;;;10326336;28;20121;-77
2022/08/10 12:45:00;;;;;;;3.72;2.00;;;;;;;;;;10354159;28;20529;-77
2022/08/10 12:50:07;;;;;;;2.53;2.17;;;;;;;;;;10364896;28;20402;-77
2022/08/10 12:55:08;;;;;;;2.22;2.00;;;;;;;;;;10361175;28;20045;-79
2022/08/10 13:00:10;;;;;;;2.10;1.90;;;;;;;;;;10363470;28;20481;-78
2022/08/10 13:05:12;;;;;;;3.17;1.77;;;;;;;;;;10348732;28;20045;-76
2022/08/10 13:10:13;;;;;;;3.80;2.03;;;;;;;;;;10368703;28;20064;-77
2022/08/10 13:15:29;;;;;;;1.98;1.73;;;;;;;;;;10342558;28;20062;-76
2022/08/10 13:20:36;;;;;;;3.53;1.90;;;;;;;;;;10343117;28;20064;-77
2022/08/10 13:25:39;;;;;;;5.97;2.00;;;;;;;;;;10344009;28;20065;-79
2022/08/10 13:30:44;;;;;;;1.92;1.83;;;;;;;;;;10335030;28;20053;-77
2022/08/10 13:35:46;;;;;;;2.85;2.13;;;;;;;;;;10378104;28;20053;-78
2022/08/10 13:40:47;;;;;;;2.45;2.05;;;;;;;;;;10389990;28;20050;-78
2022/08/10 13:45:48;;;;;;;2.70;2.25;;;;;;;;;;10377876;28;20108;-80
2022/08/10 13:50:52;;;;;;;2.00;1.80;;;;;;;;;;10343655;28;20062;-77
2022/08/10 13:55:55;;;;;;;3.33;2.28;;;;;;;;;;10362785;28;20042;-79
2022/08/10 14:00:56;;;;;;;4.10;2.00;;;;;;;;;;10358538;28;20049;-77
2022/08/10 14:05:57;;;;;;;2.55;1.80;;;;;;;;;;10343639;28;20053;-78
2022/08/10 14:11:03;;;;;;;2.25;1.95;;;;;;;;;;10336975;28;20097;-77
2022/08/10 14:16:04;;;;;;;2.95;1.95;;;;;;;;;;10364221;28;20049;-77
2022/08/10 14:21:05;;;;;;;2.08;1.88;;;;;;;;;;10361048;28;20932;-78
2022/08/10 14:26:07;;;;;;;3.53;1.88;;;;;;;;;;10342376;28;20125;-76
2022/08/10 14:31:09;;;;;;;3.50;2.13;;;;;;;;;;10353157;28;20053;-77
2022/08/10 14:36:14;;;;;;;2.70;1.85;;;;;;;;;;10358861;28;20053;-78
2022/08/10 14:41:20;;;;;;;3.40;2.22;;;;;;;;;;10338357;28;20042;-77
2022/08/10 14:46:21;;;;;;;4.13;2.28;;;;;;;;;;10359966;28;20076;-78
2022/08/10 14:51:27;;;;;;;2.20;2.00;;;;;;;;;;10357352;28;20085;-77
2022/08/10 14:56:31;;;;;;;2.67;1.95;;;;;;;;;;10336055;28;20053;-76
2022/08/10 15:01:31;;;;;;;2.20;2.00;;;;;;;;;;10353541;28;20517;-77
2022/08/10 15:06:35;;;;;;;2.40;2.20;;;;;;;;;;10350853;28;20117;-77
2022/08/10 15:11:37;;;;;;;3.83;2.20;;;;;;;;;;10351957;28;20524;-78
2022/08/10 15:16:38;;;;;;;2.75;2.05;;;;;;;;;;10335048;28;20472;-77
2022/08/10 15:21:40;;;;;;;4.60;2.20;;;;;;;;;;10377865;28;20052;-75
2022/08/10 15:26:41;;;;;;;2.58;2.28;;;;;;;;;;10382284;28;20041;-78
2022/08/10 15:37:10;;;;;;;2.78;1.92;;;;;;;;;;10359306;28;20108;-78
2022/08/10 15:42:18;;;;;;;2.63;2.40;;;;;;;;;;10323915;28;20532;-77
2022/08/10 15:47:21;;;;;;;4.75;2.33;;;;;;;;;;10355514;28;20812;-77
2022/08/10 15:52:24;;;;;;;2.72;2.10;;;;;;;;;;10347389;28;20092;-79
2022/08/10 15:57:27;;;;;;;3.35;2.40;;;;;;;;;;10352682;28;20038;-77
2022/08/10 16:02:30;;;;;;;2.80;2.58;;;;;;;;;;10355732;28;21098;-77
2022/08/10 16:07:41;;;;;;;3.47;2.67;;;;;;;;;;10349145;28;20053;-79
2022/08/10 16:12:45;;;;;;;3.20;2.63;;;;;;;;;;10343310;28;20049;-78
2022/08/10 16:17:47;;;;;;;3.70;2.20;;;;;;;;;;10344013;28;20049;-78
2022/08/10 16:22:48;;;;;;;4.57;2.65;;;;;;;;;;10348509;28;20043;-78
2022/08/10 16:27:48;;;;;;;5.03;2.95;;;;;;;;;;10342707;28;20046;-78
2022/08/10 16:32:49;;;;;;;2.50;2.30;;;;;;;;;;10356065;28;20054;-76
2022/08/10 16:37:50;;;;;;;4.80;2.87;;;;;;;;;;10330340;28;20061;-79
2022/08/10 16:42:51;;;;;;;3.17;2.30;;;;;;;;;;10361085;28;20077;-77
2022/08/10 16:47:52;;;;;;;4.70;2.80;;;;;;;;;;10373003;28;20374;-78
2022/08/10 16:52:56;;;;;;;3.65;2.40;;;;;;;;;;10358942;28;20125;-78
2022/08/10 16:57:58;;;;;;;3.60;2.60;;;;;;;;;;10379317;28;20109;-79
2022/08/10 17:03:03;;;;;;;2.63;2.42;;;;;;;;;;10343697;28;20069;-77
2022/08/10 17:08:09;;;;;;;2.65;2.45;;;;;;;;;;10377549;28;20118;-79
2022/08/10 17:13:10;;;;;;;3.15;2.28;;;;;;;;;;10374470;28;20070;-77
2022/08/10 17:18:26;;;;;;;3.20;2.25;;;;;;;;;;10380712;28;20057;-79
2022/08/10 17:23:29;;;;;;;2.83;2.58;;;;;;;;;;10378489;28;20063;-77
2022/08/10 17:28:31;;;;;;;3.47;2.20;;;;;;;;;;10372068;28;20081;-77
2022/08/10 17:33:34;;;;;;;2.40;2.20;;;;;;;;;;10391854;28;20042;-77
2022/08/10 17:38:35;;;;;;;2.85;2.45;;;;;;;;;;10393634;28;20097;-77
2022/08/10 17:43:36;;;;;;;4.28;2.30;;;;;;;;;;10332494;28;20369;-78
2022/08/10 17:48:41;;;;;;;5.67;2.20;;;;;;;;;;10325688;28;20078;-79
2022/08/10 17:53:47;;;;;;;2.40;2.20;;;;;;;;;;10347946;28;20046;-77
2022/08/10 17:58:52;;;;;;;2.72;2.45;;;;;;;;;;10361535;28;20042;-78
2022/08/10 18:03:54;;;;;;;2.88;2.40;;;;;;;;;;10363823;28;20050;-78
2022/08/10 18:09:00;;;;;;;5.63;2.50;;;;;;;;;;10372025;28;20050;-78
2022/08/10 18:14:03;;;;;;;2.50;2.30;;;;;;;;;;10380722;28;20136;-78
2022/08/10 18:19:05;;;;;;;3.60;2.50;;;;;;;;;;10385901;28;20354;-78
2022/08/10 18:24:08;;;;;;;6.95;2.92;;;;;;;;;;10363987;28;20118;-77
2022/08/10 18:29:11;;;;;;;2.58;2.33;;;;;;;;;;10348755;28;20050;-79
2022/08/10 18:34:15;;;;;;;2.97;2.67;;;;;;;;;;10371679;28;20096;-77
2022/08/10 18:39:20;;;;;;;5.35;2.72;;;;;;;;;;10383070;28;20038;-80
2022/08/10 18:44:21;;;;;;;3.30;2.40;;;;;;;;;;10357536;28;20069;-79
2022/08/10 18:49:27;;;;;;;3.90;2.67;;;;;;;;;;10354672;28;20038;-79
2022/08/10 18:54:31;;;;;;;3.40;3.10;;;;;;;;;;10355301;28;20049;-79
2022/08/10 18:59:31;;;;;;;2.72;2.53;;;;;;;;;;10365302;28;20042;-80
2022/08/10 19:04:32;;;;;;;2.97;2.78;;;;;;;;;;10352746;28;20418;-81
2022/08/10 19:09:41;;;;;;;4.80;3.22;;;;;;;;;;10344796;28;20038;-77
2022/08/10 19:14:49;;;;;;;3.65;3.17;;;;;;;;;;10351539;28;20445;-79
2022/08/10 19:20:08;;;;;;;4.28;3.38;;;;;;;;;;10361831;28;20296;-79
2022/08/10 19:25:17;;;;;;;3.35;3.00;;;;;;;;;;10317322;28;20046;-79
2022/08/10 19:30:18;;;;;;;3.85;2.83;;;;;;;;;;10346938;28;20134;-79
2022/08/10 19:35:27;;;;;;;3.50;3.15;;;;;;;;;;10357135;28;20092;-78
2022/08/10 19:40:47;;;;;;;5.38;2.95;;;;;;;;;;10352639;28;20136;-79
2022/08/10 19:45:59;;;;;;;4.47;3.08;;;;;;;;;;10357292;28;20460;-78
2022/08/10 19:51:06;;;;;;;3.53;3.20;;;;;;;;;;10379074;28;20046;-79
2022/08/10 19:56:16;;;;;;;3.15;2.88;;;;;;;;;;10374578;28;20456;-79
2022/08/10 20:01:16;;;;;;;3.92;2.97;;;;;;;;;;10379402;28;20037;-79
2022/08/10 20:06:29;;;;;;;3.33;3.03;;;;;;;;;;10392724;28;20053;-79
2022/08/10 20:11:34;;;;;;;3.35;3.05;;;;;;;;;;10381921;28;20053;-80
2022/08/10 20:16:36;;;;;;;3.28;2.67;;;;;;;;;;10392085;28;20030;-79
2022/08/10 20:21:45;;;;;;;3.28;2.97;;;;;;;;;;10387588;28;20042;-78
2022/08/10 20:26:51;;;;;;;3.33;3.03;;;;;;;;;;10391863;28;20045;-79
2022/08/10 20:31:52;;;;;;;4.75;3.22;;;;;;;;;;10374203;28;20514;-78
2022/08/10 20:37:00;;;;;;;3.40;3.10;;;;;;;;;;10369645;28;20042;-77
2022/08/10 20:42:20;;;;;;;3.72;3.40;;;;;;;;;;10363935;28;20497;-79
2022/08/10 20:47:24;;;;;;;4.28;3.25;;;;;;;;;;10362292;28;20053;-77
2022/08/10 20:52:24;;;;;;;4.30;3.55;;;;;;;;;;10364011;28;20125;-79
2022/08/10 20:57:28;;;;;;;3.42;3.13;;;;;;;;;;10363864;28;20042;-78
2022/08/10 21:02:30;;;;;;;4.80;3.38;;;;;;;;;;10371007;28;20039;-78
2022/08/10 21:07:42;;;;;;;4.17;3.50;;;;;;;;;;10360325;28;20068;-79
2022/08/10 21:12:56;;;;;;;4.70;3.92;;;;;;;;;;10366350;28;20050;-79
2022/08/10 21:18:06;;;;;;;4.22;3.65;;;;;;;;;;10362246;28;20065;-78
2022/08/10 21:23:07;;;;;;;5.13;3.60;;;;;;;;;;10346014;28;20052;-77
2022/08/10 22:59:50;;;;;;;4.70;3.20;;;;;;;;;;10351599;28;20056;-77
2022/08/10 23:04:51;;;;;;;5.00;3.90;;;;;;;;;;10358204;28;20044;-77
2022/08/10 23:10:04;;;;;;;5.35;3.40;;;;;;;;;;10333548;28;20061;-77
2022/08/10 23:20:26;;;;;;;7.63;4.20;;;;;;;;;;10347746;28;20034;-77
2022/08/10 23:25:27;;;;;;;4.00;3.60;;;;;;;;;;10360175;28;20034;-76
2022/08/10 23:30:35;;;;;;;4.60;4.18;;;;;;;;;;10357131;28;20089;-77
2022/08/10 23:35:55;;;;;;;4.85;3.83;;;;;;;;;;10351892;28;20128;-78
2022/08/10 23:40:57;;;;;;;4.07;3.67;;;;;;;;;;10360539;28;20127;-77
2022/08/10 23:45:59;;;;;;;5.50;3.80;;;;;;;;;;10367700;28;20130;-76
2022/08/10 23:51:01;;;;;;;4.18;3.75;;;;;;;;;;10377518;28;20046;-77
2022/08/10 23:56:05;;;;;;;4.60;4.10;;;;;;;;;;10367713;28;20048;-77
